Time;durP1;ratioP1;P1;durP2;ratioP2;P2;SDS_P1;SDS_P2;PMS_P1;PMS_P2;Temp;Humidity;BMP_temperature;BMP_pressure;BME280_temperature;BME280_humidity;BME280_pressure;Samples;Min_cycle;Max_cycle;Signal;HPM_P1;HPM_P2
2021/07/17 00:00:49;;;;;;;17.65;14.45;;;;;;;;;;5049662;28;20627;-85
2021/07/17 00:03:15;;;;;;;20.27;14.98;;;;;;;;;;5053670;28;20100;-85
2021/07/17 00:05:40;;;;;;;17.42;14.38;;;;;;;;;;5044462;28;20044;-84
2021/07/17 00:08:06;;;;;;;18.40;14.80;;;;;;;;;;5045751;28;20040;-85
2021/07/17 00:10:47;;;;;;;19.55;14.18;;;;;;;;;;5037359;28;20026;-85
2021/07/17 00:13:12;;;;;;;19.95;14.82;;;;;;;;;;5043118;28;20024;-85
2021/07/17 00:15:38;;;;;;;17.88;13.65;;;;;;;;;;5042622;28;20119;-85
2021/07/17 00:18:03;;;;;;;18.10;13.55;;;;;;;;;;5035566;28;20477;-85
2021/07/17 00:20:30;;;;;;;17.90;13.98;;;;;;;;;;5046971;28;20031;-84
2021/07/17 00:22:55;;;;;;;19.35;13.60;;;;;;;;;;5043537;28;20477;-85
2021/07/17 00:25:22;;;;;;;20.00;14.00;;;;;;;;;;5042779;28;20094;-85
2021/07/17 00:27:48;;;;;;;22.75;14.25;;;;;;;;;;5047547;28;20083;-85
2021/07/17 00:30:15;;;;;;;24.90;14.70;;;;;;;;;;5042663;28;20021;-84
2021/07/17 00:32:40;;;;;;;24.23;14.18;;;;;;;;;;5043735;28;20021;-84
2021/07/17 00:35:07;;;;;;;21.75;14.43;;;;;;;;;;5039842;28;20025;-84
2021/07/17 00:37:33;;;;;;;21.88;15.00;;;;;;;;;;5038210;28;20094;-84
2021/07/17 00:39:58;;;;;;;23.17;14.98;;;;;;;;;;5046882;28;20024;-84
2021/07/17 00:42:23;;;;;;;23.63;14.55;;;;;;;;;;5038756;28;20079;-84
2021/07/17 00:44:49;;;;;;;20.48;14.70;;;;;;;;;;5046457;28;20032;-84
2021/07/17 00:47:15;;;;;;;21.27;14.40;;;;;;;;;;5047467;28;20029;-84
2021/07/17 00:49:41;;;;;;;19.30;13.98;;;;;;;;;;5040483;28;20492;-84
2021/07/17 00:52:06;;;;;;;21.02;14.70;;;;;;;;;;5043704;28;20083;-84
2021/07/17 00:54:32;;;;;;;22.15;14.82;;;;;;;;;;5046177;28;20025;-84
2021/07/17 00:57:02;;;;;;;22.15;15.68;;;;;;;;;;5033032;28;20021;-84
2021/07/17 00:59:30;;;;;;;23.38;16.30;;;;;;;;;;5041796;28;20029;-84
2021/07/17 01:01:57;;;;;;;22.42;15.43;;;;;;;;;;5041099;28;20056;-84
2021/07/17 01:04:23;;;;;;;22.73;14.35;;;;;;;;;;5059910;28;20029;-84
2021/07/17 01:06:50;;;;;;;25.65;16.00;;;;;;;;;;5038548;28;20100;-84
2021/07/17 01:09:16;;;;;;;23.85;15.85;;;;;;;;;;5041159;28;20074;-84
2021/07/17 01:11:41;;;;;;;24.27;15.10;;;;;;;;;;5033415;28;20033;-84
2021/07/17 01:14:07;;;;;;;27.73;16.13;;;;;;;;;;5036548;28;20029;-84
2021/07/17 01:16:33;;;;;;;29.17;16.52;;;;;;;;;;5053364;28;20056;-84
2021/07/17 01:18:59;;;;;;;24.23;16.25;;;;;;;;;;5043648;28;20395;-84
2021/07/17 01:21:26;;;;;;;27.40;16.15;;;;;;;;;;5044791;28;20116;-84
2021/07/17 01:23:52;;;;;;;25.83;15.93;;;;;;;;;;5046920;28;20448;-84
2021/07/17 01:26:17;;;;;;;29.38;16.88;;;;;;;;;;5045019;28;20021;-83
2021/07/17 01:28:43;;;;;;;24.90;16.83;;;;;;;;;;5048039;28;20041;-84
2021/07/17 01:31:08;;;;;;;25.55;15.75;;;;;;;;;;5053465;28;20044;-83
2021/07/17 01:33:35;;;;;;;27.48;17.20;;;;;;;;;;5050945;28;20036;-84
2021/07/17 01:36:01;;;;;;;23.50;15.98;;;;;;;;;;5051402;28;20131;-83
2021/07/17 01:38:27;;;;;;;23.80;15.30;;;;;;;;;;5042661;28;20108;-83
2021/07/17 01:40:52;;;;;;;26.63;17.25;;;;;;;;;;5047975;28;20328;-83
2021/07/17 01:43:19;;;;;;;32.38;17.88;;;;;;;;;;5043404;28;20033;-84
2021/07/17 01:45:45;;;;;;;23.63;15.45;;;;;;;;;;5045491;28;20024;-84
2021/07/17 01:48:12;;;;;;;30.17;17.60;;;;;;;;;;5041650;28;20128;-84
2021/07/17 01:50:38;;;;;;;25.55;16.33;;;;;;;;;;5038735;28;20032;-84
2021/07/17 01:53:06;;;;;;;24.50;15.52;;;;;;;;;;5047601;28;20044;-84
2021/07/17 01:55:32;;;;;;;27.63;17.02;;;;;;;;;;5038011;28;20485;-84
2021/07/17 01:57:58;;;;;;;25.77;15.90;;;;;;;;;;5045227;28;20055;-85
2021/07/17 02:00:25;;;;;;;25.55;16.63;;;;;;;;;;5052439;28;20041;-85
2021/07/17 02:02:53;;;;;;;30.92;17.77;;;;;;;;;;5045783;28;20024;-84
2021/07/17 02:05:20;;;;;;;25.58;16.15;;;;;;;;;;5041345;28;20034;-85
2021/07/17 02:07:46;;;;;;;31.05;17.05;;;;;;;;;;5048757;28;20077;-85
2021/07/17 02:10:14;;;;;;;27.88;16.20;;;;;;;;;;5035101;28;20026;-84
2021/07/17 02:12:59;;;;;;;28.98;17.27;;;;;;;;;;5046245;28;20036;-84
2021/07/17 02:15:25;;;;;;;24.20;16.42;;;;;;;;;;5047448;28;20488;-84
2021/07/17 02:17:50;;;;;;;27.52;15.90;;;;;;;;;;5040184;28;20026;-85
2021/07/17 02:20:16;;;;;;;25.02;15.82;;;;;;;;;;5042727;28;20021;-84
2021/07/17 02:22:42;;;;;;;27.02;15.70;;;;;;;;;;5043981;28;20106;-83
2021/07/17 02:25:08;;;;;;;27.15;16.30;;;;;;;;;;5043060;28;20089;-84
2021/07/17 02:27:33;;;;;;;27.70;16.52;;;;;;;;;;5037261;28;20025;-84
2021/07/17 02:29:59;;;;;;;29.80;17.23;;;;;;;;;;5050408;28;20040;-84
2021/07/17 02:32:24;;;;;;;26.23;16.45;;;;;;;;;;5051139;28;20494;-83
2021/07/17 02:34:50;;;;;;;26.80;16.67;;;;;;;;;;5049616;28;20094;-84
2021/07/17 02:37:16;;;;;;;26.42;16.23;;;;;;;;;;5043474;28;20111;-84
2021/07/17 02:39:42;;;;;;;25.65;16.17;;;;;;;;;;5038095;28;20415;-84
2021/07/17 02:42:07;;;;;;;28.88;16.77;;;;;;;;;;5044203;28;20037;-84
2021/07/17 02:44:33;;;;;;;26.95;17.23;;;;;;;;;;5046834;28;20025;-84
2021/07/17 02:46:58;;;;;;;26.23;16.30;;;;;;;;;;5047432;28;20568;-84
2021/07/17 02:49:23;;;;;;;25.38;16.38;;;;;;;;;;5042980;28;20123;-84
2021/07/17 02:51:49;;;;;;;27.83;17.00;;;;;;;;;;5041782;28;20039;-85
2021/07/17 02:54:15;;;;;;;24.90;16.08;;;;;;;;;;5044335;28;20020;-84
2021/07/17 02:56:41;;;;;;;25.65;15.38;;;;;;;;;;5049452;28;20033;-84
2021/07/17 02:59:07;;;;;;;29.50;15.88;;;;;;;;;;5049224;28;20112;-84
2021/07/17 03:01:33;;;;;;;26.27;16.88;;;;;;;;;;5057045;28;20082;-85
2021/07/17 03:03:59;;;;;;;24.90;15.65;;;;;;;;;;5050658;28;20025;-84
2021/07/17 03:06:24;;;;;;;28.30;16.08;;;;;;;;;;5049538;28;20025;-84
2021/07/17 03:08:49;;;;;;;26.23;16.30;;;;;;;;;;5041633;28;20022;-83
2021/07/17 03:11:15;;;;;;;27.35;16.55;;;;;;;;;;5042955;28;20031;-84
2021/07/17 03:13:40;;;;;;;26.08;16.35;;;;;;;;;;5043580;28;20033;-84
2021/07/17 03:16:06;;;;;;;28.10;16.65;;;;;;;;;;5047471;28;20063;-84
2021/07/17 03:18:31;;;;;;;30.13;17.38;;;;;;;;;;5038634;28;20025;-83
2021/07/17 03:20:57;;;;;;;26.63;16.33;;;;;;;;;;5041274;28;20053;-83
2021/07/17 03:23:22;;;;;;;28.95;17.40;;;;;;;;;;5037249;28;20025;-83
2021/07/17 03:25:48;;;;;;;30.33;16.95;;;;;;;;;;5051007;28;20895;-84
2021/07/17 03:28:13;;;;;;;24.60;15.90;;;;;;;;;;5045317;28;20025;-83
2021/07/17 03:30:38;;;;;;;25.88;16.48;;;;;;;;;;5048554;28;20094;-84
2021/07/17 03:33:04;;;;;;;27.67;16.60;;;;;;;;;;5038308;28;20044;-85
2021/07/17 03:35:29;;;;;;;26.05;16.45;;;;;;;;;;5037390;28;20027;-84
2021/07/17 03:37:55;;;;;;;29.90;18.45;;;;;;;;;;5040729;28;20025;-84
2021/07/17 03:40:20;;;;;;;29.08;17.15;;;;;;;;;;5039937;28;20025;-84
2021/07/17 03:42:46;;;;;;;29.73;18.80;;;;;;;;;;5041489;28;20040;-84
2021/07/17 03:45:11;;;;;;;31.45;17.48;;;;;;;;;;5047305;28;20056;-84
2021/07/17 03:47:37;;;;;;;31.92;17.75;;;;;;;;;;5047335;28;20021;-84
2021/07/17 03:50:04;;;;;;;29.17;16.65;;;;;;;;;;5048451;28;20385;-84
2021/07/17 03:52:29;;;;;;;29.90;17.15;;;;;;;;;;5040224;28;20366;-84
2021/07/17 03:54:55;;;;;;;29.17;16.95;;;;;;;;;;5033083;28;20032;-84
2021/07/17 03:57:20;;;;;;;27.75;17.50;;;;;;;;;;5048371;28;20035;-84
2021/07/17 03:59:46;;;;;;;30.13;17.75;;;;;;;;;;5037072;28;20026;-84
2021/07/17 04:02:11;;;;;;;32.45;18.17;;;;;;;;;;5041858;28;20025;-84
2021/07/17 04:04:40;;;;;;;27.92;17.40;;;;;;;;;;5045221;28;20056;-84
2021/07/17 04:07:06;;;;;;;34.45;17.75;;;;;;;;;;5038390;28;20017;-85
2021/07/17 04:09:32;;;;;;;30.77;18.67;;;;;;;;;;5043809;28;20067;-84
2021/07/17 04:11:57;;;;;;;32.25;18.52;;;;;;;;;;5045515;28;20059;-84
2021/07/17 04:14:23;;;;;;;32.38;18.42;;;;;;;;;;5040578;28;20030;-84
2021/07/17 04:16:48;;;;;;;29.98;18.00;;;;;;;;;;5044678;28;20424;-84
2021/07/17 04:19:14;;;;;;;31.58;17.70;;;;;;;;;;5045753;28;20031;-84
2021/07/17 04:21:40;;;;;;;31.13;17.58;;;;;;;;;;5043403;28;20072;-84
2021/07/17 04:24:05;;;;;;;30.80;17.45;;;;;;;;;;5044527;28;20020;-84
2021/07/17 04:26:31;;;;;;;32.28;18.73;;;;;;;;;;5038843;28;20024;-84
2021/07/17 04:28:56;;;;;;;30.67;18.17;;;;;;;;;;5046236;28;20029;-84
2021/07/17 04:31:21;;;;;;;31.98;18.00;;;;;;;;;;5036447;28;20160;-84
2021/07/17 04:33:47;;;;;;;34.30;17.92;;;;;;;;;;5045170;28;20030;-84
2021/07/17 04:36:12;;;;;;;28.33;18.13;;;;;;;;;;5040533;28;20163;-84
2021/07/17 04:38:39;;;;;;;32.65;18.75;;;;;;;;;;5046260;28;20032;-84
2021/07/17 04:41:04;;;;;;;29.83;17.33;;;;;;;;;;5042442;28;20430;-84
2021/07/17 04:43:30;;;;;;;35.30;19.10;;;;;;;;;;5039763;28;20020;-84
2021/07/17 04:45:55;;;;;;;35.85;18.63;;;;;;;;;;5042428;28;20100;-83
2021/07/17 04:48:21;;;;;;;33.78;17.88;;;;;;;;;;5042575;28;20111;-84
2021/07/17 04:50:46;;;;;;;32.45;18.27;;;;;;;;;;5042836;28;20025;-84
2021/07/17 04:53:12;;;;;;;38.25;19.80;;;;;;;;;;5046752;28;20370;-84
2021/07/17 04:55:38;;;;;;;32.33;17.85;;;;;;;;;;5041571;28;20029;-84
2021/07/17 04:58:04;;;;;;;35.97;18.90;;;;;;;;;;5037916;28;20086;-84
2021/07/17 05:00:30;;;;;;;35.08;19.10;;;;;;;;;;5044501;28;20025;-84
2021/07/17 05:02:56;;;;;;;36.72;20.10;;;;;;;;;;5036926;28;20029;-84
2021/07/17 05:05:23;;;;;;;39.55;19.15;;;;;;;;;;5044741;28;20028;-84
2021/07/17 05:07:50;;;;;;;31.42;18.05;;;;;;;;;;5039626;28;20075;-84
2021/07/17 05:10:17;;;;;;;39.00;19.70;;;;;;;;;;5047012;28;20068;-82
2021/07/17 05:12:44;;;;;;;34.72;18.40;;;;;;;;;;5034722;28;20139;-81
2021/07/17 05:15:11;;;;;;;34.38;18.13;;;;;;;;;;5039557;28;20030;-83
2021/07/17 05:17:37;;;;;;;30.50;17.90;;;;;;;;;;5036106;28;20560;-83
2021/07/17 05:20:04;;;;;;;30.23;17.88;;;;;;;;;;5060201;28;20024;-83
2021/07/17 05:22:30;;;;;;;33.72;17.23;;;;;;;;;;5041108;28;20032;-83
2021/07/17 05:24:55;;;;;;;31.80;18.30;;;;;;;;;;5042857;28;20024;-83
2021/07/17 05:27:21;;;;;;;33.58;18.10;;;;;;;;;;5042860;28;20039;-83
2021/07/17 05:29:47;;;;;;;30.15;18.35;;;;;;;;;;5036982;28;20512;-83
2021/07/17 05:32:14;;;;;;;31.67;17.40;;;;;;;;;;5043799;28;20049;-83
2021/07/17 05:34:40;;;;;;;31.23;16.90;;;;;;;;;;5043043;28;20030;-83
2021/07/17 05:37:09;;;;;;;32.40;18.40;;;;;;;;;;5039147;28;20025;-83
2021/07/17 05:39:36;;;;;;;35.15;18.00;;;;;;;;;;5032244;28;20017;-83
2021/07/17 05:42:02;;;;;;;38.03;17.75;;;;;;;;;;5040953;28;20028;-83
2021/07/17 05:44:28;;;;;;;29.45;16.65;;;;;;;;;;5040187;28;20772;-83
2021/07/17 05:46:53;;;;;;;32.05;17.50;;;;;;;;;;5043408;28;20017;-83
2021/07/17 05:49:19;;;;;;;29.98;16.90;;;;;;;;;;5043058;28;20032;-83
2021/07/17 05:51:46;;;;;;;33.03;18.10;;;;;;;;;;5037263;28;20511;-83
2021/07/17 05:54:11;;;;;;;33.97;17.45;;;;;;;;;;5041862;28;20025;-83
2021/07/17 05:56:37;;;;;;;36.78;17.63;;;;;;;;;;5032664;28;20538;-83
2021/07/17 05:59:02;;;;;;;39.00;20.13;;;;;;;;;;5037042;28;20424;-83
2021/07/17 06:01:27;;;;;;;29.48;17.80;;;;;;;;;;5041545;28;20449;-83
2021/07/17 06:03:53;;;;;;;34.95;17.27;;;;;;;;;;5045895;28;20037;-83
2021/07/17 06:06:18;;;;;;;34.75;17.90;;;;;;;;;;5039968;28;20442;-83
2021/07/17 06:08:44;;;;;;;40.67;17.85;;;;;;;;;;5046499;28;20070;-83
2021/07/17 06:11:09;;;;;;;35.85;18.45;;;;;;;;;;5041272;28;20420;-83
2021/07/17 06:13:35;;;;;;;30.17;16.45;;;;;;;;;;5041607;28;20040;-83
2021/07/17 06:16:00;;;;;;;30.52;17.80;;;;;;;;;;5043936;28;20021;-83
2021/07/17 06:18:25;;;;;;;31.92;17.10;;;;;;;;;;5042326;28;20025;-83
2021/07/17 06:20:51;;;;;;;29.95;17.42;;;;;;;;;;5043275;28;20113;-83
2021/07/17 06:23:16;;;;;;;33.03;17.38;;;;;;;;;;5046613;28;20084;-83
2021/07/17 06:25:42;;;;;;;36.58;19.10;;;;;;;;;;5041146;28;20029;-83
2021/07/17 06:28:08;;;;;;;38.00;17.67;;;;;;;;;;5043006;28;20031;-83
2021/07/17 06:30:33;;;;;;;33.88;18.08;;;;;;;;;;5040500;28;20427;-83
2021/07/17 06:32:59;;;;;;;33.97;18.48;;;;;;;;;;5042105;28;20037;-83
2021/07/17 06:35:24;;;;;;;39.05;19.67;;;;;;;;;;5050123;28;20472;-81
2021/07/17 06:37:50;;;;;;;35.97;18.00;;;;;;;;;;5048870;28;20029;-83
2021/07/17 06:40:17;;;;;;;37.45;19.55;;;;;;;;;;5040403;28;20029;-83
2021/07/17 06:42:51;;;;;;;39.90;19.77;;;;;;;;;;5047687;28;20025;-83
2021/07/17 06:45:18;;;;;;;36.88;19.90;;;;;;;;;;5041929;28;20021;-83
2021/07/17 06:47:44;;;;;;;39.90;19.20;;;;;;;;;;5045518;28;20090;-82
2021/07/17 06:50:11;;;;;;;43.58;21.13;;;;;;;;;;5047467;28;20381;-82
2021/07/17 06:52:36;;;;;;;42.45;21.35;;;;;;;;;;5047750;28;20087;-83
2021/07/17 06:55:07;;;;;;;35.90;19.42;;;;;;;;;;5047628;28;20033;-83
2021/07/17 06:57:35;;;;;;;39.70;20.67;;;;;;;;;;5061394;28;20396;-83
2021/07/17 07:00:01;;;;;;;39.08;20.17;;;;;;;;;;5045652;28;20485;-83
2021/07/17 07:02:26;;;;;;;38.67;20.25;;;;;;;;;;5044472;28;20029;-83
2021/07/17 07:04:52;;;;;;;39.70;19.85;;;;;;;;;;5045502;28;20032;-84
2021/07/17 07:07:17;;;;;;;40.63;21.00;;;;;;;;;;5038523;28;20110;-83
2021/07/17 07:09:42;;;;;;;43.35;20.33;;;;;;;;;;5040943;28;20043;-82
2021/07/17 07:12:08;;;;;;;38.55;20.42;;;;;;;;;;5047608;28;20017;-83
2021/07/17 07:14:34;;;;;;;45.63;21.70;;;;;;;;;;5040388;28;20032;-82
2021/07/17 07:16:59;;;;;;;48.03;22.13;;;;;;;;;;5046545;28;20431;-84
2021/07/17 07:19:24;;;;;;;41.17;21.30;;;;;;;;;;5049110;28;20024;-83
2021/07/17 07:21:50;;;;;;;40.67;20.05;;;;;;;;;;5036664;28;20389;-84
2021/07/17 07:24:15;;;;;;;46.97;20.95;;;;;;;;;;5047862;28;20579;-83
2021/07/17 07:26:42;;;;;;;38.03;19.33;;;;;;;;;;5049170;28;20031;-82
2021/07/17 07:29:07;;;;;;;42.97;20.90;;;;;;;;;;5046206;28;20036;-82
2021/07/17 07:31:33;;;;;;;35.97;19.85;;;;;;;;;;5039394;28;20029;-83
2021/07/17 07:33:58;;;;;;;37.20;20.27;;;;;;;;;;5039428;28;20478;-82
2021/07/17 07:36:24;;;;;;;41.97;20.20;;;;;;;;;;5038394;28;20461;-83
2021/07/17 07:38:49;;;;;;;40.42;20.77;;;;;;;;;;5042970;28;20040;-82
2021/07/17 07:41:15;;;;;;;39.35;20.45;;;;;;;;;;5038732;28;20075;-83
2021/07/17 07:43:45;;;;;;;38.17;19.58;;;;;;;;;;5036426;28;20128;-83
2021/07/17 07:46:11;;;;;;;38.72;19.77;;;;;;;;;;5047533;28;20128;-84
2021/07/17 07:48:37;;;;;;;44.50;20.70;;;;;;;;;;5040847;28;20107;-83
2021/07/17 07:51:02;;;;;;;35.72;20.45;;;;;;;;;;5040140;28;20132;-83
2021/07/17 07:53:28;;;;;;;33.83;18.45;;;;;;;;;;5044419;28;20039;-83
2021/07/17 07:55:53;;;;;;;34.03;18.58;;;;;;;;;;5046044;28;20048;-82
2021/07/17 07:58:18;;;;;;;36.10;20.02;;;;;;;;;;5044436;28;20075;-83
2021/07/17 08:00:44;;;;;;;39.70;20.23;;;;;;;;;;5046047;28;22159;-84
2021/07/17 08:03:09;;;;;;;34.25;19.13;;;;;;;;;;5045879;28;20033;-83
2021/07/17 08:05:35;;;;;;;35.45;19.30;;;;;;;;;;5036406;28;20029;-83
2021/07/17 08:08:00;;;;;;;36.10;20.40;;;;;;;;;;5041727;28;20033;-83
2021/07/17 08:10:26;;;;;;;34.85;19.42;;;;;;;;;;5045533;28;20031;-83
2021/07/17 08:12:52;;;;;;;34.58;19.17;;;;;;;;;;5043092;28;20078;-83
2021/07/17 08:15:18;;;;;;;29.65;18.25;;;;;;;;;;5045838;28;20075;-83
2021/07/17 08:17:44;;;;;;;37.65;20.25;;;;;;;;;;5035323;28;20052;-82
2021/07/17 08:20:10;;;;;;;22.58;14.20;;;;;;;;;;5036127;28;20064;-84
2021/07/17 08:22:37;;;;;;;19.58;12.50;;;;;;;;;;5037478;28;20072;-84
2021/07/17 08:25:05;;;;;;;22.90;13.52;;;;;;;;;;5042518;28;20111;-84
2021/07/17 08:27:30;;;;;;;26.85;15.20;;;;;;;;;;5047429;28;20056;-84
2021/07/17 08:29:56;;;;;;;25.23;15.05;;;;;;;;;;5045868;28;20061;-84
2021/07/17 08:32:21;;;;;;;27.85;15.75;;;;;;;;;;5041890;28;20453;-83
2021/07/17 08:34:50;;;;;;;29.73;18.20;;;;;;;;;;5042844;28;20036;-83
2021/07/17 08:37:16;;;;;;;22.98;15.75;;;;;;;;;;5047675;28;20047;-84
2021/07/17 08:39:41;;;;;;;31.10;14.82;;;;;;;;;;5039669;28;20480;-83
2021/07/17 08:42:07;;;;;;;27.00;15.55;;;;;;;;;;5036064;28;20061;-84
2021/07/17 08:44:33;;;;;;;26.60;15.57;;;;;;;;;;5034718;28;20033;-84
2021/07/17 08:47:01;;;;;;;24.13;14.57;;;;;;;;;;5042056;28;20473;-82
2021/07/17 08:49:27;;;;;;;27.55;15.48;;;;;;;;;;5048454;28;20060;-82
2021/07/17 08:51:53;;;;;;;30.25;17.42;;;;;;;;;;5043728;28;20478;-83
2021/07/17 08:54:20;;;;;;;26.17;15.43;;;;;;;;;;5042986;28;20029;-84
2021/07/17 08:56:46;;;;;;;26.80;15.70;;;;;;;;;;5039929;28;20101;-83
2021/07/17 08:59:11;;;;;;;28.80;16.75;;;;;;;;;;5037934;28;20040;-82
2021/07/17 09:01:37;;;;;;;23.27;14.60;;;;;;;;;;5043731;28;20025;-83
2021/07/17 09:04:04;;;;;;;23.13;14.48;;;;;;;;;;5039838;28;20029;-82
2021/07/17 09:06:31;;;;;;;25.13;13.82;;;;;;;;;;5047074;28;20075;-82
2021/07/17 09:08:57;;;;;;;25.20;14.63;;;;;;;;;;5036870;28;20035;-82
2021/07/17 09:11:40;;;;;;;23.85;15.38;;;;;;;;;;5044143;28;20104;-84
2021/07/17 09:14:07;;;;;;;25.55;15.55;;;;;;;;;;5041925;28;20036;-83
2021/07/17 09:16:33;;;;;;;23.70;14.77;;;;;;;;;;5044846;28;20033;-83
2021/07/17 09:19:00;;;;;;;23.30;14.98;;;;;;;;;;5037795;28;20032;-84
2021/07/17 09:21:33;;;;;;;24.95;14.98;;;;;;;;;;5044132;28;20112;-83
2021/07/17 09:24:08;;;;;;;25.88;14.70;;;;;;;;;;5045081;28;20391;-84
2021/07/17 09:26:39;;;;;;;24.20;15.20;;;;;;;;;;5043670;28;20017;-83
2021/07/17 09:29:06;;;;;;;19.17;14.18;;;;;;;;;;5039396;28;20032;-84
2021/07/17 09:31:36;;;;;;;20.25;14.55;;;;;;;;;;5038522;28;20032;-82
2021/07/17 09:34:07;;;;;;;24.98;15.23;;;;;;;;;;5035423;28;20117;-83
2021/07/17 09:36:34;;;;;;;19.70;14.07;;;;;;;;;;5035851;28;20033;-83
2021/07/17 09:39:00;;;;;;;24.88;16.60;;;;;;;;;;5046721;28;20035;-82
2021/07/17 09:41:26;;;;;;;25.35;16.85;;;;;;;;;;5045202;28;20029;-82
2021/07/17 09:44:03;;;;;;;28.13;17.67;;;;;;;;;;5047282;28;20025;-83
2021/07/17 09:46:32;;;;;;;28.67;18.38;;;;;;;;;;5043166;28;20021;-81
2021/07/17 09:49:00;;;;;;;31.50;18.05;;;;;;;;;;5036677;28;20083;-83
2021/07/17 09:51:34;;;;;;;31.17;19.00;;;;;;;;;;5044381;28;20051;-81
2021/07/17 09:54:02;;;;;;;31.52;18.63;;;;;;;;;;5041103;28;20032;-82
2021/07/17 09:56:31;;;;;;;26.50;17.15;;;;;;;;;;5040931;28;20041;-83
2021/07/17 09:58:59;;;;;;;28.40;17.98;;;;;;;;;;5037936;28;20025;-81
2021/07/17 10:01:32;;;;;;;31.63;18.83;;;;;;;;;;5047254;28;20025;-81
2021/07/17 10:04:17;;;;;;;30.27;17.25;;;;;;;;;;5039424;28;20021;-81
2021/07/17 10:06:56;;;;;;;25.50;16.30;;;;;;;;;;5050403;28;20040;-81
2021/07/17 10:09:33;;;;;;;27.48;17.38;;;;;;;;;;5040408;28;20055;-82
2021/07/17 10:12:04;;;;;;;28.70;18.15;;;;;;;;;;5046025;28;20029;-82
2021/07/17 10:14:33;;;;;;;34.15;18.77;;;;;;;;;;5042757;28;20029;-82
2021/07/17 10:17:08;;;;;;;30.92;18.85;;;;;;;;;;5048867;28;20112;-82
2021/07/17 10:19:34;;;;;;;28.80;17.67;;;;;;;;;;5047788;28;20037;-81
2021/07/17 10:22:01;;;;;;;31.67;18.77;;;;;;;;;;5041291;28;20032;-81
2021/07/17 10:24:27;;;;;;;30.02;18.35;;;;;;;;;;5038271;28;20480;-82
2021/07/17 10:26:53;;;;;;;26.73;17.52;;;;;;;;;;5032176;28;20029;-81
2021/07/17 10:29:21;;;;;;;33.40;19.02;;;;;;;;;;5040495;28;20582;-82
2021/07/17 10:31:48;;;;;;;30.45;18.27;;;;;;;;;;5045561;28;20170;-83
2021/07/17 10:34:15;;;;;;;29.13;17.77;;;;;;;;;;5049353;28;20028;-81
2021/07/17 10:37:05;;;;;;;29.65;18.00;;;;;;;;;;5041207;28;20025;-82
2021/07/17 10:39:36;;;;;;;29.83;18.48;;;;;;;;;;5045036;28;20048;-82
2021/07/17 10:42:10;;;;;;;32.03;18.52;;;;;;;;;;5036577;28;20028;-82
2021/07/17 10:44:40;;;;;;;32.25;18.75;;;;;;;;;;5038431;28;20026;-82
2021/07/17 10:47:07;;;;;;;31.85;17.77;;;;;;;;;;5044163;28;20037;-83
2021/07/17 10:49:44;;;;;;;33.97;19.80;;;;;;;;;;5047088;28;20113;-82
2021/07/17 10:52:10;;;;;;;29.83;18.08;;;;;;;;;;5041912;28;20049;-82
2021/07/17 10:54:37;;;;;;;37.78;20.20;;;;;;;;;;5041349;28;20477;-83
2021/07/17 10:57:09;;;;;;;36.42;18.73;;;;;;;;;;5042166;28;20083;-82
2021/07/17 10:59:34;;;;;;;34.35;18.63;;;;;;;;;;5043316;28;20056;-82
2021/07/17 11:02:01;;;;;;;31.17;17.95;;;;;;;;;;5041694;28;20485;-82
2021/07/17 11:04:55;;;;;;;35.13;18.88;;;;;;;;;;5041505;28;20021;-82
2021/07/17 11:07:23;;;;;;;33.50;18.20;;;;;;;;;;5034969;28;20071;-83
2021/07/17 11:09:56;;;;;;;31.88;19.00;;;;;;;;;;5043741;28;20029;-83
2021/07/17 11:12:27;;;;;;;33.80;20.55;;;;;;;;;;5042226;28;20017;-82
2021/07/17 11:14:54;;;;;;;32.90;18.33;;;;;;;;;;5042994;28;20028;-82
2021/07/17 11:17:47;;;;;;;33.50;19.38;;;;;;;;;;5040126;28;20064;-83
2021/07/17 11:20:20;;;;;;;31.75;18.58;;;;;;;;;;5035715;28;20052;-83
2021/07/17 11:22:47;;;;;;;34.53;18.77;;;;;;;;;;5037335;28;20057;-82
2021/07/17 11:25:16;;;;;;;33.30;18.20;;;;;;;;;;5041639;28;20039;-82
2021/07/17 11:27:42;;;;;;;36.55;19.95;;;;;;;;;;5037043;28;20025;-82
2021/07/17 11:30:15;;;;;;;33.60;20.13;;;;;;;;;;5046931;28;20028;-82
2021/07/17 11:33:03;;;;;;;33.10;20.10;;;;;;;;;;5043797;28;20025;-82
2021/07/17 11:35:28;;;;;;;36.72;19.35;;;;;;;;;;5045698;28;20044;-82
2021/07/17 11:37:54;;;;;;;36.17;22.02;;;;;;;;;;5048251;28;20461;-82
2021/07/17 11:40:20;;;;;;;32.25;19.98;;;;;;;;;;5042722;28;20056;-82
2021/07/17 11:42:46;;;;;;;43.17;21.98;;;;;;;;;;5044358;28;20075;-82
2021/07/17 11:45:12;;;;;;;33.10;20.40;;;;;;;;;;5041868;28;20028;-81
2021/07/17 11:47:37;;;;;;;38.78;21.42;;;;;;;;;;5037882;28;20025;-82
2021/07/17 11:50:04;;;;;;;36.22;21.35;;;;;;;;;;5044679;28;20060;-82
2021/07/17 11:52:35;;;;;;;38.60;21.30;;;;;;;;;;5044076;28;20035;-82
2021/07/17 11:55:05;;;;;;;41.20;21.75;;;;;;;;;;5039976;28;20451;-82
2021/07/17 11:57:35;;;;;;;37.42;20.77;;;;;;;;;;5038275;28;21186;-81
2021/07/17 12:00:16;;;;;;;35.75;20.98;;;;;;;;;;5045914;28;20017;-82
2021/07/17 12:02:43;;;;;;;39.70;21.23;;;;;;;;;;5046028;28;20033;-81
2021/07/17 12:05:17;;;;;;;33.75;19.58;;;;;;;;;;5042256;28;20335;-82
2021/07/17 12:07:44;;;;;;;38.92;21.85;;;;;;;;;;5040465;28;20079;-80
2021/07/17 12:10:14;;;;;;;38.15;20.85;;;;;;;;;;5035239;28;20029;-82
2021/07/17 12:12:51;;;;;;;40.90;21.58;;;;;;;;;;5040425;28;20066;-82
2021/07/17 12:15:18;;;;;;;39.53;21.13;;;;;;;;;;5039700;28;20029;-81
2021/07/17 12:17:47;;;;;;;37.50;21.52;;;;;;;;;;5042530;28;20036;-81
2021/07/17 12:20:17;;;;;;;37.58;21.90;;;;;;;;;;5047506;28;20029;-82
2021/07/17 12:22:59;;;;;;;37.03;21.70;;;;;;;;;;5045787;28;20167;-82
2021/07/17 12:25:36;;;;;;;41.45;21.52;;;;;;;;;;5032743;28;20405;-82
2021/07/17 12:28:07;;;;;;;34.13;20.65;;;;;;;;;;5037944;28;20623;-82
2021/07/17 12:30:53;;;;;;;33.22;20.15;;;;;;;;;;5038721;28;20041;-82
2021/07/17 12:33:22;;;;;;;40.65;22.55;;;;;;;;;;5038443;28;20151;-82
2021/07/17 12:36:03;;;;;;;34.80;21.92;;;;;;;;;;5043168;28;20017;-83
2021/07/17 12:38:31;;;;;;;36.75;21.65;;;;;;;;;;5045721;28;20020;-82
2021/07/17 12:41:03;;;;;;;41.58;22.13;;;;;;;;;;5050323;28;20052;-82
2021/07/17 12:43:33;;;;;;;34.92;20.27;;;;;;;;;;5037067;28;20492;-82
2021/07/17 12:46:23;;;;;;;32.67;19.50;;;;;;;;;;5039262;28;20116;-82
2021/07/17 12:49:00;;;;;;;34.35;21.20;;;;;;;;;;5043314;28;20365;-81
2021/07/17 12:51:34;;;;;;;33.47;21.05;;;;;;;;;;5044826;28;20032;-81
2021/07/17 12:54:01;;;;;;;32.00;19.92;;;;;;;;;;5036780;28;20049;-81
2021/07/17 12:56:40;;;;;;;34.03;19.88;;;;;;;;;;5044183;28;20021;-81
2021/07/17 12:59:13;;;;;;;38.58;22.30;;;;;;;;;;5043911;28;20032;-81
2021/07/17 13:01:44;;;;;;;40.95;23.38;;;;;;;;;;5042167;28;20041;-82
2021/07/17 13:04:11;;;;;;;37.47;21.67;;;;;;;;;;5038447;28;20060;-82
2021/07/17 13:06:37;;;;;;;37.53;22.10;;;;;;;;;;5047252;28;20028;-81
2021/07/17 13:09:03;;;;;;;38.58;22.65;;;;;;;;;;5039410;28;20514;-82
2021/07/17 13:11:29;;;;;;;39.95;23.67;;;;;;;;;;5037373;28;20025;-82
2021/07/17 13:13:59;;;;;;;50.75;25.83;;;;;;;;;;5046122;28;20318;-81
2021/07/17 13:16:36;;;;;;;46.58;23.45;;;;;;;;;;5048289;28;20032;-81
2021/07/17 13:19:06;;;;;;;55.33;24.58;;;;;;;;;;5045380;28;20115;-81
2021/07/17 13:22:01;;;;;;;60.38;27.30;;;;;;;;;;5046215;28;20036;-82
2021/07/17 13:24:26;;;;;;;64.47;29.90;;;;;;;;;;5055876;28;20025;-82
2021/07/17 13:26:57;;;;;;;47.35;26.00;;;;;;;;;;5039392;28;20043;-82
2021/07/17 13:29:28;;;;;;;43.63;23.77;;;;;;;;;;5043143;28;20615;-83
2021/07/17 13:31:59;;;;;;;24.73;14.50;;;;;;;;;;5047615;28;20075;-83
2021/07/17 13:34:27;;;;;;;36.58;22.08;;;;;;;;;;5042876;28;20057;-84
2021/07/17 13:37:03;;;;;;;41.60;24.58;;;;;;;;;;5045264;28;20101;-82
2021/07/17 13:39:48;;;;;;;44.53;24.35;;;;;;;;;;5041522;28;20028;-83
2021/07/17 13:42:13;;;;;;;60.95;23.92;;;;;;;;;;5045324;28;20044;-83
2021/07/17 13:44:39;;;;;;;42.97;22.80;;;;;;;;;;5041973;28;20032;-84
2021/07/17 13:47:13;;;;;;;37.53;21.50;;;;;;;;;;5045570;28;20049;-84
2021/07/17 13:49:39;;;;;;;35.80;21.75;;;;;;;;;;5046833;28;20031;-82
2021/07/17 13:52:05;;;;;;;32.10;20.52;;;;;;;;;;5055285;28;20025;-83
2021/07/17 13:54:30;;;;;;;34.55;19.92;;;;;;;;;;5045204;28;20090;-82
2021/07/17 13:56:56;;;;;;;36.40;21.45;;;;;;;;;;5050890;28;20020;-83
2021/07/17 13:59:28;;;;;;;35.28;22.42;;;;;;;;;;5046885;28;20029;-82
2021/07/17 14:02:04;;;;;;;36.67;22.00;;;;;;;;;;5046220;28;20063;-83
2021/07/17 14:04:30;;;;;;;36.50;22.20;;;;;;;;;;5047577;28;20056;-83
2021/07/17 14:06:55;;;;;;;33.75;21.55;;;;;;;;;;5044824;28;20068;-84
2021/07/17 14:09:21;;;;;;;31.35;20.00;;;;;;;;;;5048364;28;20036;-84
2021/07/17 14:11:46;;;;;;;34.90;20.77;;;;;;;;;;5044461;28;20047;-81
2021/07/17 14:14:12;;;;;;;33.58;20.85;;;;;;;;;;5041182;28;20196;-84
2021/07/17 14:16:38;;;;;;;34.60;21.13;;;;;;;;;;5040614;28;20021;-85
2021/07/17 14:19:04;;;;;;;36.83;21.42;;;;;;;;;;5050860;28;20028;-84